Time;durP1;ratioP1;P1;durP2;ratioP2;P2;SDS_P1;SDS_P2;PMS_P1;PMS_P2;Temp;Humidity;BMP_temperature;BMP_pressure;BME280_temperature;BME280_humidity;BME280_pressure;Samples;Min_cycle;Max_cycle;Signal;HPM_P1;HPM_P2
2022/04/17 00:01:39;;;;;;;9.90;7.47;;;20.50;77.80;;;;;;5055431;28;20180;-75
2022/04/17 00:04:07;;;;;;;11.47;7.27;;;20.70;76.70;;;;;;5051248;28;20215;-76
2022/04/17 00:06:34;;;;;;;8.53;6.80;;;20.80;75.60;;;;;;5036757;28;20691;-77
2022/04/17 00:09:02;;;;;;;6.77;5.37;;;20.90;74.60;;;;;;5052510;28;20187;-78
2022/04/17 00:11:29;;;;;;;7.33;4.77;;;21.00;73.90;;;;;;5053465;28;20290;-76
2022/04/17 00:13:59;;;;;;;7.63;5.03;;;21.10;71.90;;;;;;5054248;28;20208;-78
2022/04/17 00:16:26;;;;;;;11.10;5.20;;;21.20;72.60;;;;;;5047940;28;20180;-88
2022/04/17 00:18:54;;;;;;;6.37;4.33;;;21.30;72.10;;;;;;5053399;28;20180;-76
2022/04/17 00:21:22;;;;;;;7.00;3.90;;;21.40;71.80;;;;;;5049006;28;20183;-77
2022/04/17 00:23:50;;;;;;;7.23;4.47;;;21.50;70.40;;;;;;5052963;28;20188;-77
2022/04/17 00:26:19;;;;;;;7.23;4.57;;;21.50;70.80;;;;;;5053892;28;20209;-83
2022/04/17 00:28:46;;;;;;;4.77;4.20;;;21.50;69.90;;;;;;5046544;28;20249;-76
2022/04/17 00:31:13;;;;;;;4.40;3.47;;;21.70;70.40;;;;;;5053531;28;20196;-78
2022/04/17 00:33:41;;;;;;;4.00;3.10;;;21.70;69.00;;;;;;5054032;28;20575;-80
2022/04/17 00:36:08;;;;;;;3.90;2.43;;;21.80;69.10;;;;;;5053640;28;20693;-75
2022/04/17 00:38:35;;;;;;;5.63;2.97;;;21.90;67.00;;;;;;5052757;28;20184;-76
2022/04/17 00:41:03;;;;;;;7.77;4.10;;;22.00;66.30;;;;;;5052492;28;20184;-80
2022/04/17 00:43:34;;;;;;;5.23;3.27;;;22.00;66.40;;;;;;5048831;28;20241;-79
2022/04/17 00:46:02;;;;;;;4.67;2.27;;;21.90;65.80;;;;;;5053370;28;20665;-74
2022/04/17 00:48:29;;;;;;;3.40;2.03;;;21.90;65.40;;;;;;5051593;28;20627;-76
2022/04/17 00:50:58;;;;;;;3.03;2.40;;;22.10;64.90;;;;;;5045742;28;20184;-91
2022/04/17 00:53:27;;;;;;;3.90;1.97;;;22.30;64.50;;;;;;5045542;28;20705;-78
2022/04/17 00:55:55;;;;;;;3.67;2.20;;;22.40;63.30;;;;;;5052522;28;20336;-75
2022/04/17 00:58:22;;;;;;;4.97;2.37;;;22.30;65.10;;;;;;5052929;28;20190;-75
2022/04/17 01:00:50;;;;;;;2.23;1.70;;;22.50;64.70;;;;;;5053028;28;20180;-76
2022/04/17 01:03:18;;;;;;;4.47;1.87;;;22.60;63.50;;;;;;5048614;28;20180;-75
2022/04/17 01:05:46;;;;;;;2.80;1.97;;;22.80;63.80;;;;;;5050478;28;20274;-74
2022/04/17 01:08:15;;;;;;;4.23;2.13;;;22.90;63.20;;;;;;5051468;28;20179;-73
2022/04/17 01:10:42;;;;;;;3.70;1.93;;;22.80;63.60;;;;;;5047490;28;20188;-77
2022/04/17 01:13:10;;;;;;;3.10;1.60;;;22.80;63.10;;;;;;5046904;28;20695;-75
2022/04/17 01:15:38;;;;;;;3.37;1.90;;;22.70;62.50;;;;;;5049885;28;20241;-73
2022/04/17 01:18:06;;;;;;;4.23;1.70;;;22.80;63.00;;;;;;5051107;28;20183;-72
2022/04/17 01:20:33;;;;;;;2.80;1.60;;;23.00;63.50;;;;;;5052393;28;20199;-74
2022/04/17 01:28:31;;;;;;;5.07;1.80;;;22.60;63.00;;;;;;5052097;28;20195;-74
2022/04/17 01:30:59;;;;;;;2.50;1.47;;;23.10;63.10;;;;;;5051239;28;20184;-75
2022/04/17 01:33:29;;;;;;;4.80;1.30;;;23.20;62.60;;;;;;5054787;28;20216;-75
2022/04/17 01:35:57;;;;;;;2.03;1.40;;;23.30;62.10;;;;;;5051804;28;20191;-74
2022/04/17 01:38:24;;;;;;;2.67;1.40;;;23.40;62.60;;;;;;5048698;28;20176;-74
2022/04/17 01:40:51;;;;;;;1.40;1.27;;;23.70;61.60;;;;;;5051216;28;20187;-73
2022/04/17 01:43:18;;;;;;;1.53;1.37;;;23.90;59.50;;;;;;5049223;28;20188;-74
2022/04/17 01:45:46;;;;;;;1.93;1.40;;;23.80;60.20;;;;;;5050039;28;20195;-74
2022/04/17 01:48:16;;;;;;;2.60;1.53;;;23.50;61.30;;;;;;5052186;28;20175;-73
2022/04/17 01:50:43;;;;;;;5.20;1.50;;;23.30;63.00;;;;;;5051028;28;20180;-73
2022/04/17 01:53:11;;;;;;;3.83;1.30;;;23.40;61.90;;;;;;5050418;28;20180;-72
2022/04/17 01:55:38;;;;;;;1.40;1.30;;;23.50;61.60;;;;;;5047031;28;20179;-75
2022/04/17 01:58:06;;;;;;;2.57;1.30;;;23.30;61.60;;;;;;5048090;28;20192;-74
2022/04/17 02:00:33;;;;;;;2.07;1.10;;;23.20;61.80;;;;;;5052178;28;20632;-76
2022/04/17 02:03:01;;;;;;;4.33;2.40;;;23.20;61.80;;;;;;5052653;28;20198;-76
2022/04/17 02:05:28;;;;;;;3.60;1.30;;;23.20;62.30;;;;;;5044898;28;20191;-77
2022/04/17 02:07:55;;;;;;;2.13;1.50;;;23.00;61.70;;;;;;5051445;28;20222;-73
2022/04/17 02:10:23;;;;;;;2.40;1.33;;;23.00;62.40;;;;;;5051286;28;20279;-73
2022/04/17 02:12:50;;;;;;;3.43;1.50;;;23.30;62.10;;;;;;5051662;28;20650;-74
2022/04/17 02:15:17;;;;;;;2.57;1.20;;;23.20;61.60;;;;;;5051698;28;20298;-73
2022/04/17 02:17:45;;;;;;;1.50;1.20;;;23.20;61.70;;;;;;5051592;28;20176;-72
2022/04/17 02:20:12;;;;;;;2.90;1.57;;;23.40;61.50;;;;;;5051686;28;20267;-71
2022/04/17 02:22:41;;;;;;;3.03;1.50;;;24.10;59.50;;;;;;5055911;28;20176;-73
2022/04/17 02:25:08;;;;;;;2.83;1.03;;;23.80;60.40;;;;;;5055256;28;20203;-73
2022/04/17 02:27:36;;;;;;;3.23;1.60;;;23.90;60.20;;;;;;5055713;28;20241;-74
2022/04/17 02:30:05;;;;;;;3.00;1.50;;;23.90;60.10;;;;;;5055495;28;20191;-74
2022/04/17 02:32:32;;;;;;;5.03;1.70;;;23.80;61.60;;;;;;5055830;28;20183;-73
2022/04/17 02:35:00;;;;;;;3.40;1.27;;;23.50;62.10;;;;;;5045574;28;20219;-73
2022/04/17 02:37:28;;;;;;;2.13;1.60;;;23.90;61.50;;;;;;5054696;28;20180;-75
2022/04/17 02:39:57;;;;;;;2.00;1.10;;;24.50;59.80;;;;;;5055213;28;20598;-75
2022/04/17 02:42:24;;;;;;;4.63;1.43;;;24.70;59.10;;;;;;5055436;28;20220;-72
2022/04/17 02:44:52;;;;;;;2.30;1.00;;;25.10;57.20;;;;;;5044199;28;20189;-71
2022/04/17 02:50:05;;;;;;;1.63;0.90;;;25.10;57.30;;;;;;5054374;28;20213;-71
2022/04/17 02:52:32;;;;;;;4.10;1.03;;;25.50;56.30;;;;;;5047612;28;20266;-72
2022/04/17 02:55:00;;;;;;;2.10;1.00;;;25.50;55.50;;;;;;5055399;28;20243;-72
2022/04/17 02:57:28;;;;;;;3.50;1.00;;;25.60;56.00;;;;;;5054901;28;20218;-73
2022/04/17 02:59:55;;;;;;;4.27;1.00;;;26.00;54.80;;;;;;5054505;28;20187;-74
2022/04/17 03:07:54;;;;;;;4.87;1.13;;;26.20;53.90;;;;;;5040002;28;20199;-74
2022/04/17 03:10:21;;;;;;;3.03;1.37;;;26.00;54.70;;;;;;5053130;28;20552;-73
2022/04/17 03:12:49;;;;;;;2.37;0.77;;;26.50;52.60;;;;;;5047411;28;20190;-72
2022/04/17 03:15:16;;;;;;;1.70;0.70;;;26.20;53.00;;;;;;5052852;28;20215;-72
2022/04/17 03:17:44;;;;;;;2.00;0.60;;;26.80;51.60;;;;;;5053174;28;20195;-74
2022/04/17 03:20:11;;;;;;;2.47;0.83;;;26.80;52.10;;;;;;5054213;28;20172;-73
2022/04/17 03:22:42;;;;;;;4.97;1.47;;;26.40;52.90;;;;;;5054764;28;20168;-72
2022/04/17 03:25:11;;;;;;;2.27;0.90;;;26.90;51.60;;;;;;5054848;28;20198;-73
2022/04/17 03:27:40;;;;;;;1.50;0.60;;;26.50;51.80;;;;;;5054470;28;20172;-72
2022/04/17 03:30:09;;;;;;;4.53;1.00;;;26.70;52.10;;;;;;5054674;28;20180;-75
2022/04/17 03:32:37;;;;;;;1.10;0.90;;;26.80;52.20;;;;;;5055096;28;20263;-73
2022/04/17 03:35:04;;;;;;;6.13;1.13;;;27.30;51.00;;;;;;5054707;28;20238;-73
2022/04/17 03:37:32;;;;;;;2.30;0.80;;;27.30;50.40;;;;;;5054863;28;20179;-73
2022/04/17 03:39:59;;;;;;;3.57;1.10;;;27.30;50.50;;;;;;5042197;28;20187;-74
2022/04/17 03:42:26;;;;;;;1.30;0.70;;;26.80;51.00;;;;;;5044240;28;20246;-73
2022/04/17 03:44:54;;;;;;;3.13;1.03;;;26.90;51.00;;;;;;5054643;28;20215;-72
2022/04/17 03:47:21;;;;;;;1.60;0.70;;;26.50;52.10;;;;;;5053041;28;20215;-73
2022/04/17 03:49:48;;;;;;;2.17;0.90;;;26.80;51.80;;;;;;5054599;28;20188;-74
2022/04/17 03:52:15;;;;;;;1.03;0.50;;;26.70;51.50;;;;;;5054256;28;20172;-73
2022/04/17 03:54:43;;;;;;;1.63;0.90;;;26.80;52.10;;;;;;5086812;28;20582;-72
2022/04/17 03:57:10;;;;;;;3.17;0.83;;;26.90;51.60;;;;;;5054566;28;20237;-72
2022/04/17 03:59:37;;;;;;;5.00;1.00;;;27.00;51.10;;;;;;5054410;28;20274;-71
2022/04/17 04:02:08;;;;;;;2.20;0.77;;;27.20;50.70;;;;;;5055385;28;20658;-73
2022/04/17 04:04:36;;;;;;;4.13;0.88;;;27.30;49.80;;;;;;5054542;28;20194;-72
2022/04/17 04:07:03;;;;;;;3.87;0.77;;;26.80;50.80;;;;;;5053991;28;20187;-72
2022/04/17 04:09:31;;;;;;;4.07;1.00;;;27.20;51.10;;;;;;5054180;28;20191;-78
2022/04/17 04:11:58;;;;;;;3.90;1.20;;;27.30;50.00;;;;;;5054029;28;20627;-77
2022/04/17 04:14:25;;;;;;;2.85;1.33;;;27.00;50.40;;;;;;5054002;28;20255;-76
2022/04/17 04:16:53;;;;;;;1.77;1.13;;;26.80;50.90;;;;;;5053920;28;20188;-76
2022/04/17 04:19:20;;;;;;;4.93;1.33;;;26.90;51.10;;;;;;5053896;28;20184;-75
2022/04/17 04:21:47;;;;;;;3.17;1.00;;;26.50;52.70;;;;;;5053420;28;20197;-79
2022/04/17 04:24:18;;;;;;;2.20;1.50;;;26.30;52.20;;;;;;5054084;28;20317;-76
2022/04/17 04:28:33;;;;;;;5.33;1.37;;;26.40;53.20;;;;;;5039837;28;20185;-82
2022/04/17 04:29:34;;;;;;;2.90;1.00;;;26.30;52.40;;;;;;5043294;28;20710;-74
2022/04/17 04:32:02;;;;;;;1.60;1.00;;;26.00;52.30;;;;;;5054924;28;20183;-80
2022/04/17 04:34:30;;;;;;;1.30;0.80;;;25.70;53.20;;;;;;5053641;28;20254;-74
2022/04/17 04:36:57;;;;;;;2.27;0.70;;;26.40;52.20;;;;;;5053525;28;20175;-78
2022/04/17 04:39:25;;;;;;;2.63;1.00;;;26.90;50.90;;;;;;5053783;28;20187;-78
2022/04/17 04:41:52;;;;;;;1.73;1.00;;;26.80;50.70;;;;;;5053285;28;20311;-77
2022/04/17 04:44:19;;;;;;;2.60;0.60;;;27.00;51.10;;;;;;5053237;28;20210;-76
2022/04/17 04:46:47;;;;;;;2.37;0.77;;;27.10;50.50;;;;;;5053513;28;20184;-75
2022/04/17 04:49:29;;;;;;;1.03;0.60;;;27.40;49.50;;;;;;5053660;28;20184;-75
2022/04/17 04:52:01;;;;;;;1.73;0.77;;;27.30;48.80;;;;;;5053191;28;20638;-75
2022/04/17 04:54:32;;;;;;;1.50;0.63;;;28.00;48.60;;;;;;5053473;28;20238;-74
2022/04/17 04:57:00;;;;;;;2.70;0.85;;;27.50;48.80;;;;;;5053529;28;20211;-74
2022/04/17 04:59:27;;;;;;;1.73;0.75;;;27.40;49.60;;;;;;5053389;28;20176;-73
2022/04/17 05:01:55;;;;;;;1.23;0.70;;;27.90;48.80;;;;;;5054459;28;20207;-75
2022/04/17 05:04:22;;;;;;;3.73;0.83;;;27.50;49.00;;;;;;5053291;28;20256;-75
2022/04/17 05:06:50;;;;;;;2.83;0.70;;;27.50;49.10;;;;;;5053053;28;20191;-74
2022/04/17 05:09:17;;;;;;;1.90;0.70;;;27.30;49.30;;;;;;5053356;28;20180;-73
2022/04/17 05:11:46;;;;;;;1.83;0.83;;;27.90;49.00;;;;;;5052681;28;20196;-73
2022/04/17 05:14:13;;;;;;;2.53;1.20;;;27.80;48.00;;;;;;5045308;28;20216;-74
2022/04/17 05:16:41;;;;;;;5.13;0.90;;;27.60;48.90;;;;;;5046554;28;20214;-74
2022/04/17 05:19:27;;;;;;;2.17;0.90;;;27.80;48.60;;;;;;5050660;28;20548;-75
2022/04/17 05:21:59;;;;;;;2.42;0.63;;;28.00;47.20;;;;;;5049471;28;20275;-73
2022/04/17 05:24:30;;;;;;;1.33;0.50;;;27.60;48.30;;;;;;5048976;28;20271;-77
2022/04/17 05:26:59;;;;;;;1.47;0.80;;;27.20;48.90;;;;;;5049148;28;20603;-76
2022/04/17 05:29:27;;;;;;;3.13;0.90;;;26.90;50.20;;;;;;5052845;28;20187;-81
2022/04/17 05:31:54;;;;;;;1.23;0.73;;;27.30;48.80;;;;;;5052281;28;20873;-76
2022/04/17 05:34:21;;;;;;;2.30;0.90;;;27.00;49.70;;;;;;5050101;28;20250;-75
2022/04/17 05:36:48;;;;;;;2.40;0.90;;;27.40;49.00;;;;;;5051507;28;20584;-76
2022/04/17 05:39:16;;;;;;;3.33;0.87;;;28.00;46.70;;;;;;5047901;28;20199;-75
2022/04/17 05:41:44;;;;;;;3.80;0.90;;;27.30;48.80;;;;;;5047188;28;20234;-72
2022/04/17 05:44:12;;;;;;;3.10;0.80;;;27.20;49.40;;;;;;5052499;28;20196;-73
2022/04/17 05:46:41;;;;;;;2.53;0.90;;;27.30;48.90;;;;;;5050036;28;20186;-75
2022/04/17 05:49:09;;;;;;;2.87;0.77;;;27.20;49.10;;;;;;5051261;28;20662;-73
2022/04/17 05:51:37;;;;;;;4.23;0.70;;;27.30;48.90;;;;;;5051392;28;20198;-75
2022/04/17 05:54:05;;;;;;;2.07;0.67;;;26.80;49.80;;;;;;5050767;28;20774;-73
2022/04/17 05:56:33;;;;;;;4.10;1.00;;;26.90;49.70;;;;;;5050793;28;20175;-73
2022/04/17 05:59:01;;;;;;;2.47;0.60;;;26.80;50.20;;;;;;5051723;28;20173;-72
2022/04/17 06:01:29;;;;;;;4.13;1.20;;;26.80;50.10;;;;;;5051636;28;20180;-74
2022/04/17 06:03:56;;;;;;;2.27;1.00;;;27.00;50.30;;;;;;5048424;28;20595;-75
2022/04/17 06:06:24;;;;;;;7.73;0.80;;;27.00;51.10;;;;;;5051926;28;20180;-72
2022/04/17 06:08:51;;;;;;;2.50;0.70;;;26.80;50.80;;;;;;5052003;28;20172;-73
2022/04/17 06:11:18;;;;;;;3.80;0.70;;;26.70;50.80;;;;;;5052212;28;20506;-74
2022/04/17 06:13:45;;;;;;;2.07;0.70;;;26.20;51.90;;;;;;5051987;28;20595;-77
2022/04/17 06:16:13;;;;;;;3.77;1.00;;;26.30;52.10;;;;;;5051937;28;20180;-77
2022/04/17 06:18:40;;;;;;;2.60;0.77;;;26.30;52.00;;;;;;5051651;28;20713;-77
2022/04/17 06:21:08;;;;;;;2.77;0.87;;;26.20;51.90;;;;;;5052104;28;20184;-77
2022/04/17 06:23:36;;;;;;;2.60;0.90;;;26.10;52.50;;;;;;5051006;28;20191;-75
2022/04/17 06:26:04;;;;;;;4.53;0.80;;;26.10;52.80;;;;;;5051777;28;20275;-75
2022/04/17 06:28:32;;;;;;;3.33;0.80;;;25.80;53.40;;;;;;5052144;28;20536;-74
2022/04/17 06:30:59;;;;;;;4.47;1.03;;;26.40;51.80;;;;;;5050722;28;20179;-72
2022/04/17 06:33:26;;;;;;;3.23;1.00;;;25.90;52.50;;;;;;5052419;28;20218;-75
2022/04/17 06:35:54;;;;;;;1.27;0.60;;;25.50;54.60;;;;;;5051681;28;20191;-73
2022/04/17 06:38:22;;;;;;;3.90;1.07;;;25.80;53.50;;;;;;5051718;28;20187;-82
2022/04/17 06:40:50;;;;;;;5.83;1.10;;;25.50;54.70;;;;;;5049180;28;20203;-73
2022/04/17 06:43:17;;;;;;;2.03;0.80;;;25.30;55.40;;;;;;5052120;28;20242;-74
2022/04/17 06:45:44;;;;;;;3.60;1.23;;;24.20;58.70;;;;;;5038454;28;20245;-74
2022/04/17 06:48:17;;;;;;;1.13;0.80;;;23.40;61.10;;;;;;5052004;28;20211;-77
2022/04/17 06:50:45;;;;;;;2.80;1.03;;;23.10;62.30;;;;;;5049732;28;20726;-74
2022/04/17 06:53:13;;;;;;;2.43;0.73;;;23.10;63.10;;;;;;5051309;28;20738;-77
2022/04/17 06:55:40;;;;;;;3.83;1.00;;;23.10;62.50;;;;;;5051098;28;20184;-82
2022/04/17 06:58:08;;;;;;;2.47;0.80;;;23.00;63.20;;;;;;5049700;28;20195;-76
2022/04/17 07:00:36;;;;;;;2.47;0.90;;;22.80;64.50;;;;;;5048866;28;20569;-76
2022/04/17 07:03:04;;;;;;;4.73;0.90;;;22.50;65.40;;;;;;5053363;28;20176;-73
2022/04/17 07:05:32;;;;;;;6.23;1.00;;;22.40;66.00;;;;;;5051356;28;20709;-72
2022/04/17 07:08:05;;;;;;;1.60;0.90;;;22.30;66.30;;;;;;5055014;28;20184;-77
2022/04/17 07:10:37;;;;;;;2.93;0.80;;;22.10;67.30;;;;;;5054976;28;20718;-72
2022/04/17 07:13:06;;;;;;;2.60;0.90;;;22.00;67.40;;;;;;5055157;28;20546;-73
2022/04/17 07:15:33;;;;;;;2.53;1.00;;;21.90;68.20;;;;;;5054674;28;20274;-80
2022/04/17 07:18:00;;;;;;;4.20;1.10;;;21.80;68.30;;;;;;5054632;28;20194;-74
2022/04/17 07:20:31;;;;;;;2.17;1.00;;;21.80;68.60;;;;;;5055319;28;20180;-72
2022/04/17 07:23:02;;;;;;;5.87;1.30;;;21.70;68.90;;;;;;5054795;28;20179;-78
2022/04/17 07:25:29;;;;;;;5.33;1.40;;;21.70;68.90;;;;;;5055550;28;20176;-76
2022/04/17 07:27:57;;;;;;;3.93;1.00;;;21.60;69.20;;;;;;5054547;28;20176;-79
2022/04/17 07:30:30;;;;;;;1.83;0.83;;;21.50;69.30;;;;;;5053047;28;20370;-78
2022/04/17 07:33:00;;;;;;;3.27;1.10;;;21.40;69.40;;;;;;5058222;28;20176;-77
2022/04/17 07:35:29;;;;;;;2.60;1.10;;;21.40;69.80;;;;;;5052034;28;20208;-77
2022/04/17 07:38:04;;;;;;;2.30;1.20;;;21.30;70.30;;;;;;5054914;28;20259;-74
2022/04/17 07:40:34;;;;;;;2.80;1.20;;;21.30;70.60;;;;;;5054069;28;20231;-72
2022/04/17 07:43:03;;;;;;;3.87;1.20;;;21.30;70.50;;;;;;5046243;28;20238;-75
2022/04/17 07:45:32;;;;;;;2.53;1.03;;;21.20;70.90;;;;;;5047836;28;20184;-73
2022/04/17 07:48:00;;;;;;;2.77;0.93;;;21.20;71.00;;;;;;5053995;28;20618;-77
2022/04/17 07:50:29;;;;;;;4.70;1.30;;;21.20;71.20;;;;;;5054352;28;20604;-74
2022/04/17 07:52:58;;;;;;;6.37;1.10;;;21.10;71.30;;;;;;5053731;28;20176;-74
2022/04/17 07:55:25;;;;;;;3.40;1.20;;;21.10;71.50;;;;;;5053251;28;20223;-73
2022/04/17 07:58:08;;;;;;;1.60;1.07;;;21.00;71.90;;;;;;5048624;28;20245;-74
2022/04/17 08:01:40;;;;;;;3.93;1.00;;;21.00;71.90;;;;;;5054099;28;20180;-73
2022/04/17 08:06:09;;;;;;;3.63;1.27;;;20.90;71.60;;;;;;5056278;28;20212;-72
2022/04/17 08:08:39;;;;;;;3.90;1.20;;;21.00;71.50;;;;;;5050351;28;20532;-73
2022/04/17 08:11:07;;;;;;;5.73;3.17;;;20.90;71.60;;;;;;5050456;28;20199;-74
2022/04/17 08:13:36;;;;;;;3.97;2.10;;;20.90;71.80;;;;;;5060620;28;20184;-73
2022/04/17 08:16:04;;;;;;;4.80;1.57;;;20.90;72.00;;;;;;5052771;28;20274;-72
2022/04/17 08:18:33;;;;;;;4.40;1.80;;;20.90;72.10;;;;;;5045018;28;20185;-74
2022/04/17 08:21:00;;;;;;;4.07;1.57;;;20.80;72.40;;;;;;5053618;28;20195;-74
2022/04/17 08:23:29;;;;;;;2.70;1.33;;;20.80;72.70;;;;;;5053589;28;20263;-74
2022/04/17 08:25:56;;;;;;;5.93;1.70;;;20.80;72.70;;;;;;5053183;28;20550;-73
2022/04/17 08:28:23;;;;;;;4.37;1.40;;;20.70;72.90;;;;;;5053360;28;20215;-73
2022/04/17 08:30:52;;;;;;;5.27;1.80;;;20.70;73.20;;;;;;5052740;28;20183;-73
2022/04/17 08:33:19;;;;;;;9.20;1.83;;;20.70;73.40;;;;;;5063701;28;20244;-73
2022/04/17 08:35:47;;;;;;;7.93;1.70;;;20.70;73.60;;;;;;5052233;28;20589;-72
2022/04/17 08:38:19;;;;;;;4.77;1.63;;;20.70;73.90;;;;;;5049808;28;20274;-72
2022/04/17 08:40:47;;;;;;;2.77;1.27;;;20.60;74.00;;;;;;5053557;28;20180;-72
2022/04/17 08:43:18;;;;;;;4.27;1.70;;;20.60;74.10;;;;;;5054088;28;20820;-72
2022/04/17 08:45:50;;;;;;;5.13;1.47;;;20.60;74.30;;;;;;5052089;28;20546;-72
2022/04/17 08:48:18;;;;;;;8.27;1.63;;;20.60;74.40;;;;;;5053855;28;20218;-74
2022/04/17 08:50:47;;;;;;;6.57;1.70;;;20.60;74.50;;;;;;5053396;28;20229;-73
2022/04/17 08:53:17;;;;;;;3.93;1.53;;;20.60;74.70;;;;;;5045036;28;20184;-73
2022/04/17 08:55:45;;;;;;;3.83;1.97;;;20.60;74.90;;;;;;5039603;28;20199;-74
2022/04/17 08:58:13;;;;;;;4.80;1.77;;;20.50;75.30;;;;;;5049545;28;20172;-77
2022/04/17 09:00:40;;;;;;;7.33;1.80;;;20.50;75.50;;;;;;5051416;28;20175;-73
2022/04/17 09:03:09;;;;;;;6.63;2.07;;;20.40;75.80;;;;;;5053415;28;20593;-74
2022/04/17 09:05:38;;;;;;;8.27;2.23;;;20.40;75.90;;;;;;5056355;28;20210;-74
2022/04/17 09:08:17;;;;;;;4.60;1.83;;;20.30;76.10;;;;;;5053469;28;20675;-73
2022/04/17 09:10:56;;;;;;;7.67;1.73;;;20.30;76.50;;;;;;5058884;28;20183;-75
2022/04/17 09:13:42;;;;;;;6.30;1.97;;;20.30;76.60;;;;;;5058406;28;20580;-73
2022/04/17 09:16:09;;;;;;;6.40;1.70;;;20.30;76.80;;;;;;5052054;28;20520;-73
2022/04/17 09:18:38;;;;;;;3.60;1.87;;;20.20;77.00;;;;;;5051605;28;20233;-73
2022/04/17 09:21:06;;;;;;;6.10;2.20;;;20.20;77.10;;;;;;5052010;28;20195;-73
2022/04/17 09:23:42;;;;;;;4.93;2.10;;;20.20;77.40;;;;;;5050173;28;20176;-76
2022/04/17 09:26:09;;;;;;;6.10;2.17;;;20.10;77.40;;;;;;5052247;28;20187;-78
2022/04/17 09:28:38;;;;;;;5.20;2.20;;;20.10;77.40;;;;;;5051556;28;20164;-73
2022/04/17 09:31:12;;;;;;;5.90;1.90;;;20.10;77.40;;;;;;5050563;28;20638;-74
2022/04/17 09:33:42;;;;;;;5.87;1.90;;;20.10;77.50;;;;;;5050859;28;20270;-73
2022/04/17 09:36:09;;;;;;;7.83;1.80;;;20.10;77.70;;;;;;5052436;28;20199;-73
2022/04/17 09:38:37;;;;;;;3.77;1.80;;;20.00;78.00;;;;;;5052260;28;20255;-74
2022/04/17 09:41:19;;;;;;;12.40;2.47;;;20.00;77.90;;;;;;5050273;28;20184;-77
2022/04/17 09:43:47;;;;;;;6.17;2.07;;;20.00;78.30;;;;;;5042018;28;20176;-77
2022/04/17 09:46:15;;;;;;;4.47;1.80;;;20.00;78.30;;;;;;5042702;28;20275;-81
2022/04/17 09:48:45;;;;;;;5.80;1.90;;;19.90;78.70;;;;;;5052509;28;20190;-76
2022/04/17 09:51:26;;;;;;;4.63;1.93;;;19.90;78.80;;;;;;5052368;28;20176;-76
2022/04/17 09:54:03;;;;;;;4.33;2.00;;;20.00;78.60;;;;;;5050982;28;20315;-76
2022/04/17 09:56:37;;;;;;;8.73;2.07;;;20.00;78.40;;;;;;5052864;28;20159;-76
2022/04/17 09:59:24;;;;;;;6.00;1.70;;;20.00;78.80;;;;;;5052659;28;20669;-77
2022/04/17 10:01:54;;;;;;;7.83;2.57;;;20.00;78.90;;;;;;5053975;28;20203;-72
2022/04/17 10:04:24;;;;;;;4.67;1.97;;;20.00;79.00;;;;;;5035251;28;20203;-73
2022/04/17 10:06:53;;;;;;;4.10;1.63;;;20.00;79.10;;;;;;5052401;28;20214;-73
2022/04/17 10:09:22;;;;;;;3.53;1.90;;;20.00;78.90;;;;;;5052287;28;20168;-74
2022/04/17 10:11:51;;;;;;;3.73;1.90;;;20.00;79.20;;;;;;5032628;28;20230;-77
2022/04/17 10:14:19;;;;;;;6.30;1.87;;;19.90;79.30;;;;;;5051019;28;20227;-81
2022/04/17 10:16:48;;;;;;;6.63;1.90;;;19.90;79.40;;;;;;5051374;28;20188;-80
2022/04/17 10:19:20;;;;;;;4.50;1.87;;;19.90;79.60;;;;;;5037305;28;20184;-76
2022/04/17 10:21:47;;;;;;;4.13;1.80;;;20.00;79.70;;;;;;5052246;28;20175;-76
2022/04/17 10:24:17;;;;;;;4.07;1.90;;;20.00;79.60;;;;;;5051850;28;20618;-78
2022/04/17 10:26:52;;;;;;;5.90;2.20;;;20.00;79.80;;;;;;5052226;28;20287;-77
2022/04/17 10:29:42;;;;;;;4.33;1.80;;;20.00;79.80;;;;;;5052550;28;20732;-76
2022/04/17 10:32:38;;;;;;;7.00;2.07;;;20.00;79.90;;;;;;5042734;28;20190;-76
2022/04/17 10:35:26;;;;;;;9.20;2.17;;;20.00;80.10;;;;;;5035931;28;20703;-77
2022/04/17 10:37:56;;;;;;;3.83;1.60;;;20.00;80.30;;;;;;5048276;28;20176;-73
2022/04/17 10:40:24;;;;;;;11.13;1.87;;;20.00;79.70;;;;;;5050734;28;20194;-73
2022/04/17 10:43:02;;;;;;;8.20;1.90;;;20.10;79.60;;;;;;5054488;28;20717;-77
2022/04/17 10:45:32;;;;;;;4.90;1.73;;;20.00;79.80;;;;;;5055940;28;20175;-72
2022/04/17 10:48:11;;;;;;;6.20;1.50;;;20.00;79.90;;;;;;5056223;28;20172;-75
2022/04/17 10:50:50;;;;;;;4.83;1.40;;;20.00;80.00;;;;;;5055467;28;20195;-73
2022/04/17 10:53:31;;;;;;;4.77;1.90;;;20.00;79.90;;;;;;5055140;28;20179;-74
2022/04/17 10:56:16;;;;;;;4.17;1.57;;;19.90;80.10;;;;;;5055516;28;20279;-73
2022/04/17 10:58:54;;;;;;;4.10;1.40;;;19.90;80.30;;;;;;5036408;28;20180;-72
2022/04/17 11:01:45;;;;;;;4.20;1.47;;;19.90;80.20;;;;;;5044634;28;20199;-75
2022/04/17 11:04:21;;;;;;;4.77;1.60;;;19.90;80.10;;;;;;5054668;28;20176;-75
2022/04/17 11:06:56;;;;;;;5.67;1.73;;;19.90;80.20;;;;;;5055590;28;20175;-73
2022/04/17 11:09:25;;;;;;;5.60;1.33;;;19.80;80.20;;;;;;5054118;28;20176;-75
2022/04/17 11:11:53;;;;;;;4.07;1.60;;;19.80;80.50;;;;;;5043464;28;20204;-76
2022/04/17 11:14:26;;;;;;;3.37;1.50;;;19.80;80.50;;;;;;5053864;28;20195;-73
2022/04/17 11:16:59;;;;;;;9.37;1.60;;;19.80;80.40;;;;;;5055062;28;20218;-73
2022/04/17 11:19:34;;;;;;;5.60;1.37;;;19.80;80.30;;;;;;5055756;28;20286;-81
2022/04/17 11:22:07;;;;;;;3.77;1.40;;;19.80;80.40;;;;;;5055062;28;20179;-73
2022/04/17 11:25:03;;;;;;;7.93;1.37;;;19.80;80.30;;;;;;5053679;28;20183;-74
2022/04/17 11:27:33;;;;;;;6.93;3.40;;;19.70;80.30;;;;;;5052640;28;20242;-76
2022/04/17 11:30:01;;;;;;;7.80;1.90;;;19.70;80.30;;;;;;5055129;28;20172;-73
2022/04/17 11:32:32;;;;;;;3.77;2.80;;;19.80;80.00;;;;;;5059430;28;21773;-73
2022/04/17 11:35:03;;;;;;;5.90;1.20;;;19.70;80.00;;;;;;5054198;28;20748;-75
2022/04/17 11:37:31;;;;;;;8.83;2.97;;;19.70;79.90;;;;;;5053565;28;20538;-75
2022/04/17 11:40:10;;;;;;;7.10;2.67;;;19.70;79.80;;;;;;5054105;28;20229;-74
2022/04/17 11:42:46;;;;;;;8.57;3.07;;;19.70;79.90;;;;;;5054489;28;20219;-74
2022/04/17 11:45:17;;;;;;;2.53;1.10;;;19.80;79.60;;;;;;5047595;28;20237;-74
2022/04/17 11:47:46;;;;;;;6.90;1.10;;;19.70;79.90;;;;;;5054211;28;20191;-72
2022/04/17 11:50:27;;;;;;;7.17;1.37;;;19.70;80.00;;;;;;5053727;28;20712;-78
2022/04/17 11:52:58;;;;;;;8.23;1.27;;;19.70;80.20;;;;;;5050810;28;20183;-73
2022/04/17 11:55:31;;;;;;;4.13;1.23;;;19.60;80.40;;;;;;5054673;28;20262;-73
2022/04/17 11:58:01;;;;;;;2.07;1.10;;;19.60;80.30;;;;;;5054689;28;20179;-72
2022/04/17 12:00:30;;;;;;;2.80;1.10;;;19.60;80.40;;;;;;5054578;28;20254;-72
2022/04/17 12:03:05;;;;;;;4.97;1.30;;;19.60;80.20;;;;;;5055219;28;20183;-74
2022/04/17 12:05:34;;;;;;;8.20;1.40;;;19.60;80.30;;;;;;5051015;28;20198;-73
2022/04/17 12:08:11;;;;;;;5.33;1.40;;;19.50;80.40;;;;;;5053839;28;20622;-73
2022/04/17 12:10:44;;;;;;;2.90;1.00;;;19.50;80.60;;;;;;5078449;28;20188;-73
2022/04/17 12:13:15;;;;;;;4.17;1.20;;;19.40;80.60;;;;;;5053563;28;20184;-73
2022/04/17 12:15:43;;;;;;;3.13;1.17;;;19.30;81.00;;;;;;5052813;28;20220;-73
2022/04/17 12:18:11;;;;;;;4.97;1.40;;;19.30;81.20;;;;;;5053268;28;20187;-73
2022/04/17 12:20:38;;;;;;;3.23;1.10;;;19.10;81.70;;;;;;5054704;28;20322;-73
2022/04/17 12:23:06;;;;;;;3.17;1.17;;;19.00;82.10;;;;;;5053344;28;20176;-73
2022/04/17 12:25:34;;;;;;;4.63;1.40;;;18.90;82.50;;;;;;5054269;28;20188;-73
2022/04/17 12:28:01;;;;;;;5.43;1.50;;;18.80;83.00;;;;;;5053732;28;20197;-73
2022/04/17 12:30:29;;;;;;;5.10;1.53;;;18.80;83.30;;;;;;5052636;28;20180;-72
2022/04/17 12:33:00;;;;;;;4.20;1.60;;;18.70;83.80;;;;;;5053819;28;20190;-73
2022/04/17 12:35:29;;;;;;;5.97;1.97;;;18.70;83.80;;;;;;5051520;28;20200;-73
2022/04/17 12:38:22;;;;;;;5.57;1.53;;;18.60;84.10;;;;;;5045478;28;20218;-73
2022/04/17 12:40:50;;;;;;;3.57;1.83;;;18.50;84.60;;;;;;5054183;28;20208;-73
2022/04/17 12:43:19;;;;;;;4.67;1.53;;;18.50;84.70;;;;;;5053487;28;20230;-73
2022/04/17 12:45:58;;;;;;;4.13;1.67;;;18.50;85.10;;;;;;5049320;28;20179;-72
2022/04/17 12:48:34;;;;;;;5.83;1.50;;;18.50;85.10;;;;;;5051266;28;20183;-73
2022/04/17 12:51:11;;;;;;;7.87;1.77;;;18.50;85.50;;;;;;5050542;28;20787;-72
2022/04/17 12:53:40;;;;;;;3.67;1.30;;;18.60;85.20;;;;;;5050687;28;20187;-73
2022/04/17 12:56:10;;;;;;;6.17;1.80;;;18.70;84.90;;;;;;5052154;28;20229;-72
2022/04/17 12:58:56;;;;;;;5.07;1.43;;;18.60;84.70;;;;;;5053605;28;20176;-73
2022/04/17 13:01:25;;;;;;;9.40;1.50;;;18.70;84.60;;;;;;5053592;28;20692;-73
2022/04/17 13:04:13;;;;;;;4.17;1.50;;;18.60;84.80;;;;;;5066826;28;20583;-72
2022/04/17 13:06:40;;;;;;;5.13;1.57;;;18.60;85.00;;;;;;5053327;28;20202;-72
2022/04/17 13:09:18;;;;;;;6.70;1.80;;;18.50;85.00;;;;;;5050872;28;20199;-72
2022/04/17 13:11:55;;;;;;;3.87;1.30;;;18.50;85.10;;;;;;5053003;28;20603;-72
2022/04/17 13:14:24;;;;;;;5.10;1.77;;;18.50;85.30;;;;;;5053368;28;20211;-72
2022/04/17 13:17:00;;;;;;;2.53;1.30;;;18.40;85.40;;;;;;5053342;28;20229;-73